sensor_id;sensor_type;location;lat;lon;timestamp;P1;durP1;ratioP1;P2;durP2;ratioP2
8777;SDS011;4425;50.872;4.712;2022-08-19T00:01:54;12.90;;;11.90;;
8777;SDS011;4425;50.872;4.712;2022-08-19T00:10:56;15.30;;;14.10;;
8777;SDS011;4425;50.872;4.712;2022-08-19T00:13:29;15.95;;;14.45;;
8777;SDS011;4425;50.872;4.712;2022-08-19T00:16:11;16.00;;;14.77;;
8777;SDS011;4425;50.872;4.712;2022-08-19T00:18:40;17.67;;;16.13;;
8777;SDS011;4425;50.872;4.712;2022-08-19T00:21:10;17.90;;;16.35;;
8777;SDS011;4425;50.872;4.712;2022-08-19T00:23:37;17.83;;;16.23;;
8777;SDS011;4425;50.872;4.712;2022-08-19T00:26:23;17.67;;;16.08;;
8777;SDS011;4425;50.872;4.712;2022-08-19T00:39:12;18.73;;;16.98;;
8777;SDS011;4425;50.872;4.712;2022-08-19T00:41:56;19.25;;;17.08;;
8777;SDS011;4425;50.872;4.712;2022-08-19T00:44:25;19.98;;;18.05;;
8777;SDS011;4425;50.872;4.712;2022-08-19T00:46:56;20.40;;;18.45;;
8777;SDS011;4425;50.872;4.712;2022-08-19T00:49:27;19.77;;;18.08;;
8777;SDS011;4425;50.872;4.712;2022-08-19T00:52:03;21.30;;;19.30;;
8777;SDS011;4425;50.872;4.712;2022-08-19T00:57:12;22.17;;;20.20;;
8777;SDS011;4425;50.872;4.712;2022-08-19T00:59:57;23.38;;;21.33;;
8777;SDS011;4425;50.872;4.712;2022-08-19T01:02:33;23.20;;;21.10;;
8777;SDS011;4425;50.872;4.712;2022-08-19T01:05:16;25.40;;;23.00;;
8777;SDS011;4425;50.872;4.712;2022-08-19T01:07:49;26.08;;;23.58;;
8777;SDS011;4425;50.872;4.712;2022-08-19T01:13:29;26.88;;;24.40;;
8777;SDS011;4425;50.872;4.712;2022-08-19T01:18:36;31.83;;;28.63;;
8777;SDS011;4425;50.872;4.712;2022-08-19T01:21:10;33.47;;;29.35;;
8777;SDS011;4425;50.872;4.712;2022-08-19T01:26:56;38.38;;;31.02;;
8777;SDS011;4425;50.872;4.712;2022-08-19T01:29:24;35.00;;;31.30;;
8777;SDS011;4425;50.872;4.712;2022-08-19T01:31:52;36.30;;;31.50;;
8777;SDS011;4425;50.872;4.712;2022-08-19T01:34:30;37.38;;;31.50;;
8777;SDS011;4425;50.872;4.712;2022-08-19T01:39:40;37.20;;;33.03;;
8777;SDS011;4425;50.872;4.712;2022-08-19T01:46:04;41.08;;;34.80;;
8777;SDS011;4425;50.872;4.712;2022-08-19T01:48:34;46.67;;;36.53;;
8777;SDS011;4425;50.872;4.712;2022-08-19T01:51:04;46.28;;;37.05;;
8777;SDS011;4425;50.872;4.712;2022-08-19T01:53:47;42.88;;;35.92;;
8777;SDS011;4425;50.872;4.712;2022-08-19T01:59:25;44.05;;;37.42;;
8777;SDS011;4425;50.872;4.712;2022-08-19T02:01:59;44.67;;;37.47;;
8777;SDS011;4425;50.872;4.712;2022-08-19T02:04:27;47.88;;;38.58;;
8777;SDS011;4425;50.872;4.712;2022-08-19T02:10:23;44.83;;;38.90;;
8777;SDS011;4425;50.872;4.712;2022-08-19T02:12:54;46.05;;;38.88;;
8777;SDS011;4425;50.872;4.712;2022-08-19T02:15:41;49.97;;;39.28;;
8777;SDS011;4425;50.872;4.712;2022-08-19T02:18:25;47.15;;;38.33;;
8777;SDS011;4425;50.872;4.712;2022-08-19T02:24:10;47.00;;;39.05;;
8777;SDS011;4425;50.872;4.712;2022-08-19T02:26:39;44.97;;;37.55;;
8777;SDS011;4425;50.872;4.712;2022-08-19T02:29:07;44.33;;;37.72;;
8777;SDS011;4425;50.872;4.712;2022-08-19T02:34:23;43.35;;;36.05;;
8777;SDS011;4425;50.872;4.712;2022-08-19T02:36:51;41.35;;;36.70;;
8777;SDS011;4425;50.872;4.712;2022-08-19T02:39:19;40.75;;;35.83;;
8777;SDS011;4425;50.872;4.712;2022-08-19T02:41:45;41.97;;;35.72;;
8777;SDS011;4425;50.872;4.712;2022-08-19T02:44:18;42.55;;;36.13;;
8777;SDS011;4425;50.872;4.712;2022-08-19T02:46:50;42.05;;;35.70;;
8777;SDS011;4425;50.872;4.712;2022-08-19T02:49:26;39.65;;;33.60;;
8777;SDS011;4425;50.872;4.712;2022-08-19T02:51:57;41.40;;;35.30;;
8777;SDS011;4425;50.872;4.712;2022-08-19T02:54:38;39.92;;;34.28;;
8777;SDS011;4425;50.872;4.712;2022-08-19T02:57:07;41.97;;;35.05;;
8777;SDS011;4425;50.872;4.712;2022-08-19T02:59:36;36.67;;;32.65;;
8777;SDS011;4425;50.872;4.712;2022-08-19T03:02:05;42.28;;;35.38;;
8777;SDS011;4425;50.872;4.712;2022-08-19T03:04:40;40.33;;;34.95;;
8777;SDS011;4425;50.872;4.712;2022-08-19T03:07:15;39.35;;;33.70;;
8777;SDS011;4425;50.872;4.712;2022-08-19T03:09:57;40.13;;;33.53;;
8777;SDS011;4425;50.872;4.712;2022-08-19T03:12:42;42.30;;;34.92;;
8777;SDS011;4425;50.872;4.712;2022-08-19T03:15:18;39.55;;;33.33;;
8777;SDS011;4425;50.872;4.712;2022-08-19T03:17:55;41.60;;;35.15;;
8777;SDS011;4425;50.872;4.712;2022-08-19T03:32:41;45.53;;;36.72;;
8777;SDS011;4425;50.872;4.712;2022-08-19T03:35:13;43.00;;;36.28;;
8777;SDS011;4425;50.872;4.712;2022-08-19T03:37:54;47.30;;;37.30;;
8777;SDS011;4425;50.872;4.712;2022-08-19T03:47:12;46.43;;;37.73;;
8777;SDS011;4425;50.872;4.712;2022-08-19T03:56:18;40.15;;;32.20;;
8777;SDS011;4425;50.872;4.712;2022-08-19T03:58:46;35.92;;;31.95;;
8777;SDS011;4425;50.872;4.712;2022-08-19T04:01:19;37.28;;;30.52;;
8777;SDS011;4425;50.872;4.712;2022-08-19T04:03:51;34.35;;;30.67;;
8777;SDS011;4425;50.872;4.712;2022-08-19T04:06:23;33.73;;;30.00;;
8777;SDS011;4425;50.872;4.712;2022-08-19T04:11:59;37.38;;;30.33;;
8777;SDS011;4425;50.872;4.712;2022-08-19T04:17:52;34.83;;;29.23;;
8777;SDS011;4425;50.872;4.712;2022-08-19T04:20:40;34.97;;;29.60;;
8777;SDS011;4425;50.872;4.712;2022-08-19T04:23:12;32.60;;;27.90;;
8777;SDS011;4425;50.872;4.712;2022-08-19T04:25:52;32.83;;;29.17;;
8777;SDS011;4425;50.872;4.712;2022-08-19T04:28:21;34.27;;;27.97;;
8777;SDS011;4425;50.872;4.712;2022-08-19T04:30:57;31.13;;;27.93;;
8777;SDS011;4425;50.872;4.712;2022-08-19T04:33:35;35.72;;;27.50;;
8777;SDS011;4425;50.872;4.712;2022-08-19T04:36:15;32.50;;;29.00;;
8777;SDS011;4425;50.872;4.712;2022-08-19T04:38:58;33.30;;;28.50;;
8777;SDS011;4425;50.872;4.712;2022-08-19T04:44:45;30.58;;;25.70;;
8777;SDS011;4425;50.872;4.712;2022-08-19T04:47:17;29.07;;;25.07;;
8777;SDS011;4425;50.872;4.712;2022-08-19T04:50:01;30.92;;;26.42;;
8777;SDS011;4425;50.872;4.712;2022-08-19T04:52:46;34.00;;;27.00;;
8777;SDS011;4425;50.872;4.712;2022-08-19T04:55:18;30.15;;;25.75;;
8777;SDS011;4425;50.872;4.712;2022-08-19T05:04:15;31.53;;;26.23;;
8777;SDS011;4425;50.872;4.712;2022-08-19T05:06:58;28.80;;;24.85;;
8777;SDS011;4425;50.872;4.712;2022-08-19T05:09:41;28.13;;;24.90;;
8777;SDS011;4425;50.872;4.712;2022-08-19T05:12:24;30.43;;;24.47;;
8777;SDS011;4425;50.872;4.712;2022-08-19T05:14:57;30.60;;;25.60;;
8777;SDS011;4425;50.872;4.712;2022-08-19T05:17:26;29.83;;;24.17;;
8777;SDS011;4425;50.872;4.712;2022-08-19T05:23:00;27.87;;;23.90;;
8777;SDS011;4425;50.872;4.712;2022-08-19T05:25:28;30.37;;;23.53;;
8777;SDS011;4425;50.872;4.712;2022-08-19T05:28:10;30.70;;;23.63;;
8777;SDS011;4425;50.872;4.712;2022-08-19T05:30:51;28.67;;;23.43;;
8777;SDS011;4425;50.872;4.712;2022-08-19T05:33:26;26.53;;;22.90;;
8777;SDS011;4425;50.872;4.712;2022-08-19T05:36:13;26.13;;;22.90;;
8777;SDS011;4425;50.872;4.712;2022-08-19T05:39:01;27.00;;;22.97;;
8777;SDS011;4425;50.872;4.712;2022-08-19T05:41:30;27.47;;;24.07;;
8777;SDS011;4425;50.872;4.712;2022-08-19T05:44:02;31.93;;;25.27;;
8777;SDS011;4425;50.872;4.712;2022-08-19T05:46:35;29.73;;;25.50;;
8777;SDS011;4425;50.872;4.712;2022-08-19T05:49:06;31.40;;;25.17;;
8777;SDS011;4425;50.872;4.712;2022-08-19T05:54:49;30.00;;;24.50;;
8777;SDS011;4425;50.872;4.712;2022-08-19T05:57:20;39.70;;;26.73;;
8777;SDS011;4425;50.872;4.712;2022-08-19T05:59:51;30.40;;;25.10;;
8777;SDS011;4425;50.872;4.712;2022-08-19T06:02:45;37.95;;;24.70;;
8777;SDS011;4425;50.872;4.712;2022-08-19T06:05:40;32.50;;;24.17;;
8777;SDS011;4425;50.872;4.712;2022-08-19T06:08:20;29.08;;;24.13;;
8777;SDS011;4425;50.872;4.712;2022-08-19T06:10:53;30.88;;;24.55;;
8777;SDS011;4425;50.872;4.712;2022-08-19T06:13:49;29.80;;;23.50;;
8777;SDS011;4425;50.872;4.712;2022-08-19T06:16:31;29.75;;;24.48;;
8777;SDS011;4425;50.872;4.712;2022-08-19T06:22:26;32.53;;;24.13;;
8777;SDS011;4425;50.872;4.712;2022-08-19T06:24:55;28.73;;;23.27;;
8777;SDS011;4425;50.872;4.712;2022-08-19T06:27:45;31.92;;;23.08;;
8777;SDS011;4425;50.872;4.712;2022-08-19T06:30:32;30.88;;;22.25;;
8777;SDS011;4425;50.872;4.712;2022-08-19T06:33:14;25.83;;;21.83;;
8777;SDS011;4425;50.872;4.712;2022-08-19T06:36:18;30.35;;;21.52;;
8777;SDS011;4425;50.872;4.712;2022-08-19T06:39:11;27.17;;;21.60;;
8777;SDS011;4425;50.872;4.712;2022-08-19T06:41:57;24.60;;;20.58;;
8777;SDS011;4425;50.872;4.712;2022-08-19T06:50:43;21.00;;;18.73;;
8777;SDS011;4425;50.872;4.712;2022-08-19T06:53:38;22.38;;;18.63;;
8777;SDS011;4425;50.872;4.712;2022-08-19T06:56:12;21.10;;;17.40;;
8777;SDS011;4425;50.872;4.712;2022-08-19T06:58:57;23.50;;;17.58;;
8777;SDS011;4425;50.872;4.712;2022-08-19T07:04:05;21.45;;;15.93;;
8777;SDS011;4425;50.872;4.712;2022-08-19T07:12:19;17.63;;;15.15;;
8777;SDS011;4425;50.872;4.712;2022-08-19T07:14:54;15.15;;;13.50;;
8777;SDS011;4425;50.872;4.712;2022-08-19T07:17:36;19.33;;;13.90;;
8777;SDS011;4425;50.872;4.712;2022-08-19T07:20:08;14.02;;;12.20;;
8777;SDS011;4425;50.872;4.712;2022-08-19T07:22:40;16.10;;;12.38;;
8777;SDS011;4425;50.872;4.712;2022-08-19T07:28:25;12.73;;;10.90;;
8777;SDS011;4425;50.872;4.712;2022-08-19T07:31:18;10.85;;;9.85;;
8777;SDS011;4425;50.872;4.712;2022-08-19T07:36:51;10.13;;;9.13;;
8777;SDS011;4425;50.872;4.712;2022-08-19T07:39:31;10.60;;;8.90;;
8777;SDS011;4425;50.872;4.712;2022-08-19T07:42:01;9.68;;;8.68;;
8777;SDS011;4425;50.872;4.712;2022-08-19T07:57:27;17.00;;;6.80;;
8777;SDS011;4425;50.872;4.712;2022-08-19T07:59:58;6.90;;;5.00;;
8777;SDS011;4425;50.872;4.712;2022-08-19T08:02:28;8.48;;;5.45;;
8777;SDS011;4425;50.872;4.712;2022-08-19T08:04:56;11.23;;;5.55;;
8777;SDS011;4425;50.872;4.712;2022-08-19T08:07:46;6.65;;;4.30;;
8777;SDS011;4425;50.872;4.712;2022-08-19T08:10:43;7.68;;;4.60;;
8777;SDS011;4425;50.872;4.712;2022-08-19T08:13:18;10.65;;;4.60;;
8777;SDS011;4425;50.872;4.712;2022-08-19T08:15:54;9.85;;;5.70;;
8777;SDS011;4425;50.872;4.712;2022-08-19T08:18:24;5.85;;;4.22;;
8777;SDS011;4425;50.872;4.712;2022-08-19T08:21:05;5.40;;;4.90;;
8777;SDS011;4425;50.872;4.712;2022-08-19T08:23:49;4.95;;;4.55;;
8777;SDS011;4425;50.872;4.712;2022-08-19T08:26:22;5.55;;;4.97;;
8777;SDS011;4425;50.872;4.712;2022-08-19T08:29:05;8.13;;;5.22;;
8777;SDS011;4425;50.872;4.712;2022-08-19T08:31:37;6.47;;;5.20;;
8777;SDS011;4425;50.872;4.712;2022-08-19T08:34:07;5.28;;;4.80;;
8777;SDS011;4425;50.872;4.712;2022-08-19T08:36:48;5.35;;;4.63;;
8777;SDS011;4425;50.872;4.712;2022-08-19T08:39:18;6.32;;;4.70;;
8777;SDS011;4425;50.872;4.712;2022-08-19T08:42:05;5.45;;;4.70;;
8777;SDS011;4425;50.872;4.712;2022-08-19T08:44:53;6.95;;;5.40;;
8777;SDS011;4425;50.872;4.712;2022-08-19T08:47:27;5.75;;;4.88;;
8777;SDS011;4425;50.872;4.712;2022-08-19T08:50:03;9.75;;;5.20;;
8777;SDS011;4425;50.872;4.712;2022-08-19T08:52:44;5.95;;;4.95;;
8777;SDS011;4425;50.872;4.712;2022-08-19T08:55:26;7.03;;;5.15;;
8777;SDS011;4425;50.872;4.712;2022-08-19T08:58:11;5.90;;;4.82;;
8777;SDS011;4425;50.872;4.712;2022-08-19T09:00:46;7.93;;;5.00;;
8777;SDS011;4425;50.872;4.712;2022-08-19T09:03:28;5.38;;;4.97;;
8777;SDS011;4425;50.872;4.712;2022-08-19T09:06:01;6.93;;;5.18;;
8777;SDS011;4425;50.872;4.712;2022-08-19T09:08:39;11.98;;;5.43;;
8777;SDS011;4425;50.872;4.712;2022-08-19T09:11:12;5.70;;;5.10;;
8777;SDS011;4425;50.872;4.712;2022-08-19T09:13:56;5.20;;;4.70;;
8777;SDS011;4425;50.872;4.712;2022-08-19T09:16:33;9.75;;;5.40;;
8777;SDS011;4425;50.872;4.712;2022-08-19T09:19:03;5.68;;;4.68;;
8777;SDS011;4425;50.872;4.712;2022-08-19T09:24:10;4.80;;;4.40;;
8777;SDS011;4425;50.872;4.712;2022-08-19T09:26:46;6.07;;;4.85;;
8777;SDS011;4425;50.872;4.712;2022-08-19T09:29:30;5.38;;;4.30;;
8777;SDS011;4425;50.872;4.712;2022-08-19T09:32:05;6.28;;;4.80;;
8777;SDS011;4425;50.872;4.712;2022-08-19T09:34:42;5.28;;;4.63;;
8777;SDS011;4425;50.872;4.712;2022-08-19T09:40:31;6.15;;;3.95;;
8777;SDS011;4425;50.872;4.712;2022-08-19T09:43:14;6.28;;;3.90;;
8777;SDS011;4425;50.872;4.712;2022-08-19T09:49:10;3.63;;;3.25;;
8777;SDS011;4425;50.872;4.712;2022-08-19T09:51:38;5.10;;;3.75;;
8777;SDS011;4425;50.872;4.712;2022-08-19T09:54:08;4.47;;;3.95;;
8777;SDS011;4425;50.872;4.712;2022-08-19T09:56:43;4.40;;;3.90;;
8777;SDS011;4425;50.872;4.712;2022-08-19T09:59:24;4.70;;;4.30;;
8777;SDS011;4425;50.872;4.712;2022-08-19T10:08:57;5.45;;;4.40;;
8777;SDS011;4425;50.872;4.712;2022-08-19T10:21:06;5.28;;;4.00;;
8777;SDS011;4425;50.872;4.712;2022-08-19T10:30:00;4.50;;;3.90;;
8777;SDS011;4425;50.872;4.712;2022-08-19T10:35:12;4.88;;;4.47;;
8777;SDS011;4425;50.872;4.712;2022-08-19T10:40:36;4.75;;;4.30;;
8777;SDS011;4425;50.872;4.712;2022-08-19T10:43:24;3.92;;;3.63;;
8777;SDS011;4425;50.872;4.712;2022-08-19T10:46:06;4.85;;;4.07;;
8777;SDS011;4425;50.872;4.712;2022-08-19T10:48:37;6.60;;;4.50;;
8777;SDS011;4425;50.872;4.712;2022-08-19T10:53:58;4.53;;;4.13;;
8777;SDS011;4425;50.872;4.712;2022-08-19T10:56:39;5.07;;;4.00;;
8777;SDS011;4425;50.872;4.712;2022-08-19T11:02:13;4.32;;;4.03;;
8777;SDS011;4425;50.872;4.712;2022-08-19T11:04:41;4.82;;;4.30;;
8777;SDS011;4425;50.872;4.712;2022-08-19T11:07:10;4.43;;;4.00;;
8777;SDS011;4425;50.872;4.712;2022-08-19T11:09:44;3.85;;;3.55;;
8777;SDS011;4425;50.872;4.712;2022-08-19T11:12:18;3.97;;;3.42;;
8777;SDS011;4425;50.872;4.712;2022-08-19T11:17:48;4.05;;;3.75;;
8777;SDS011;4425;50.872;4.712;2022-08-19T11:20:17;3.50;;;3.25;;
8777;SDS011;4425;50.872;4.712;2022-08-19T11:22:46;4.93;;;3.42;;
8777;SDS011;4425;50.872;4.712;2022-08-19T11:25:14;3.85;;;3.40;;
8777;SDS011;4425;50.872;4.712;2022-08-19T11:27:42;4.45;;;3.60;;
8777;SDS011;4425;50.872;4.712;2022-08-19T11:33:08;6.13;;;3.30;;
8777;SDS011;4425;50.872;4.712;2022-08-19T11:35:39;4.32;;;3.95;;
8777;SDS011;4425;50.872;4.712;2022-08-19T11:38:10;4.35;;;3.95;;
8777;SDS011;4425;50.872;4.712;2022-08-19T11:40:55;4.25;;;3.90;;
8777;SDS011;4425;50.872;4.712;2022-08-19T11:43:38;3.75;;;3.53;;
8777;SDS011;4425;50.872;4.712;2022-08-19T12:13:49;5.35;;;5.05;;
8777;SDS011;4425;50.872;4.712;2022-08-19T12:16:31;6.63;;;5.82;;
8777;SDS011;4425;50.872;4.712;2022-08-19T12:19:07;6.63;;;6.13;;
8777;SDS011;4425;50.872;4.712;2022-08-19T12:21:44;8.73;;;6.60;;
8777;SDS011;4425;50.872;4.712;2022-08-19T12:24:17;7.15;;;6.50;;
8777;SDS011;4425;50.872;4.712;2022-08-19T12:27:03;11.13;;;8.15;;
8777;SDS011;4425;50.872;4.712;2022-08-19T12:29:47;8.02;;;7.32;;
8777;SDS011;4425;50.872;4.712;2022-08-19T12:32:22;8.48;;;7.55;;
8777;SDS011;4425;50.872;4.712;2022-08-19T12:34:59;7.55;;;6.70;;
8777;SDS011;4425;50.872;4.712;2022-08-19T12:37:28;10.05;;;7.13;;
8777;SDS011;4425;50.872;4.712;2022-08-19T12:39:57;7.80;;;7.13;;
8777;SDS011;4425;50.872;4.712;2022-08-19T12:48:34;10.52;;;7.38;;
8777;SDS011;4425;50.872;4.712;2022-08-19T12:51:17;7.28;;;6.47;;
8777;SDS011;4425;50.872;4.712;2022-08-19T12:53:46;7.03;;;6.43;;
8777;SDS011;4425;50.872;4.712;2022-08-19T12:56:15;7.25;;;6.75;;
8777;SDS011;4425;50.872;4.712;2022-08-19T12:58:44;6.47;;;5.97;;
8777;SDS011;4425;50.872;4.712;2022-08-19T13:01:18;7.07;;;6.43;;
8777;SDS011;4425;50.872;4.712;2022-08-19T13:03:58;6.68;;;6.10;;
8777;SDS011;4425;50.872;4.712;2022-08-19T13:06:36;7.10;;;6.40;;
8777;SDS011;4425;50.872;4.712;2022-08-19T13:09:17;6.45;;;5.85;;
8777;SDS011;4425;50.872;4.712;2022-08-19T13:11:45;5.90;;;5.40;;
8777;SDS011;4425;50.872;4.712;2022-08-19T13:14:18;5.68;;;5.10;;
8777;SDS011;4425;50.872;4.712;2022-08-19T13:16:57;6.10;;;5.65;;
8777;SDS011;4425;50.872;4.712;2022-08-19T13:19:27;5.03;;;4.70;;
8777;SDS011;4425;50.872;4.712;2022-08-19T13:22:04;4.82;;;4.53;;
8777;SDS011;4425;50.872;4.712;2022-08-19T13:24:43;8.80;;;4.63;;
8777;SDS011;4425;50.872;4.712;2022-08-19T13:27:26;5.28;;;4.50;;
8777;SDS011;4425;50.872;4.712;2022-08-19T13:30:09;6.05;;;5.65;;
8777;SDS011;4425;50.872;4.712;2022-08-19T13:33:09;5.15;;;4.65;;
8777;SDS011;4425;50.872;4.712;2022-08-19T13:35:40;4.13;;;3.80;;
8777;SDS011;4425;50.872;4.712;2022-08-19T13:38:12;4.20;;;3.72;;
8777;SDS011;4425;50.872;4.712;2022-08-19T13:40:47;3.63;;;3.33;;
8777;SDS011;4425;50.872;4.712;2022-08-19T13:43:30;3.95;;;3.55;;
8777;SDS011;4425;50.872;4.712;2022-08-19T13:46:07;6.18;;;3.10;;
8777;SDS011;4425;50.872;4.712;2022-08-19T13:51:31;2.90;;;2.60;;
8777;SDS011;4425;50.872;4.712;2022-08-19T13:54:15;4.18;;;2.45;;
8777;SDS011;4425;50.872;4.712;2022-08-19T13:57:01;2.25;;;2.10;;
8777;SDS011;4425;50.872;4.712;2022-08-19T13:59:44;2.20;;;2.10;;
8777;SDS011;4425;50.872;4.712;2022-08-19T14:02:17;3.00;;;2.00;;
8777;SDS011;4425;50.872;4.712;2022-08-19T14:04:49;1.90;;;1.80;;
8777;SDS011;4425;50.872;4.712;2022-08-19T14:07:17;4.88;;;2.00;;
8777;SDS011;4425;50.872;4.712;2022-08-19T14:09:45;2.10;;;2.00;;
8777;SDS011;4425;50.872;4.712;2022-08-19T14:12:13;2.30;;;2.10;;
8777;SDS011;4425;50.872;4.712;2022-08-19T14:14:40;1.92;;;1.83;;
8777;SDS011;4425;50.872;4.712;2022-08-19T14:17:10;2.67;;;1.95;;
8777;SDS011;4425;50.872;4.712;2022-08-19T15:14:11;2.13;;;1.77;;
8777;SDS011;4425;50.872;4.712;2022-08-19T15:16:57;2.90;;;1.90;;
8777;SDS011;4425;50.872;4.712;2022-08-19T15:22:33;4.43;;;2.03;;
8777;SDS011;4425;50.872;4.712;2022-08-19T15:25:09;6.70;;;1.80;;
8777;SDS011;4425;50.872;4.712;2022-08-19T15:43:14;1.00;;;1.00;;
8777;SDS011;4425;50.872;4.712;2022-08-19T15:56:06;0.75;;;0.75;;
8777;SDS011;4425;50.872;4.712;2022-08-19T16:02:00;1.42;;;0.90;;
8777;SDS011;4425;50.872;4.712;2022-08-19T16:04:50;1.20;;;1.10;;
8777;SDS011;4425;50.872;4.712;2022-08-19T16:11:04;0.95;;;0.95;;
8777;SDS011;4425;50.872;4.712;2022-08-19T16:43:40;3.05;;;1.90;;
8777;SDS011;4425;50.872;4.712;2022-08-19T16:46:32;2.10;;;1.95;;
8777;SDS011;4425;50.872;4.712;2022-08-19T16:49:15;2.50;;;2.40;;
8777;SDS011;4425;50.872;4.712;2022-08-19T16:51:57;2.75;;;2.03;;
8777;SDS011;4425;50.872;4.712;2022-08-19T16:54:40;3.25;;;1.83;;
8777;SDS011;4425;50.872;4.712;2022-08-19T17:00:37;2.03;;;1.92;;
8777;SDS011;4425;50.872;4.712;2022-08-19T17:03:25;2.25;;;2.05;;
8777;SDS011;4425;50.872;4.712;2022-08-19T17:05:55;1.40;;;1.40;;
8777;SDS011;4425;50.872;4.712;2022-08-19T17:08:29;1.65;;;1.65;;
8777;SDS011;4425;50.872;4.712;2022-08-19T17:11:01;3.20;;;1.83;;
8777;SDS011;4425;50.872;4.712;2022-08-19T17:16:28;1.80;;;1.70;;
8777;SDS011;4425;50.872;4.712;2022-08-19T17:19:02;2.97;;;2.13;;
8777;SDS011;4425;50.872;4.712;2022-08-19T17:21:33;1.92;;;1.70;;
8777;SDS011;4425;50.872;4.712;2022-08-19T17:24:05;2.10;;;2.00;;
8777;SDS011;4425;50.872;4.712;2022-08-19T17:26:34;2.13;;;1.90;;
8777;SDS011;4425;50.872;4.712;2022-08-19T17:29:03;2.58;;;2.05;;
8777;SDS011;4425;50.872;4.712;2022-08-19T17:34:21;2.40;;;1.88;;
8777;SDS011;4425;50.872;4.712;2022-08-19T17:36:50;2.33;;;2.13;;
8777;SDS011;4425;50.872;4.712;2022-08-19T17:39:21;3.45;;;2.38;;
8777;SDS011;4425;50.872;4.712;2022-08-19T17:41:50;3.10;;;2.17;;
8777;SDS011;4425;50.872;4.712;2022-08-19T17:44:18;2.22;;;2.00;;
8777;SDS011;4425;50.872;4.712;2022-08-19T17:46:47;2.40;;;2.30;;
8777;SDS011;4425;50.872;4.712;2022-08-19T17:52:10;2.90;;;2.30;;
8777;SDS011;4425;50.872;4.712;2022-08-19T17:54:39;4.53;;;2.35;;
8777;SDS011;4425;50.872;4.712;2022-08-19T17:57:13;2.63;;;2.40;;
8777;SDS011;4425;50.872;4.712;2022-08-19T17:59:47;2.58;;;2.38;;
8777;SDS011;4425;50.872;4.712;2022-08-19T18:02:31;3.15;;;2.53;;
8777;SDS011;4425;50.872;4.712;2022-08-19T18:05:02;2.75;;;2.50;;
8777;SDS011;4425;50.872;4.712;2022-08-19T18:07:31;2.80;;;2.60;;
8777;SDS011;4425;50.872;4.712;2022-08-19T18:09:59;3.90;;;2.40;;
8777;SDS011;4425;50.872;4.712;2022-08-19T18:12:26;2.97;;;2.75;;
8777;SDS011;4425;50.872;4.712;2022-08-19T18:14:53;3.80;;;3.03;;
8777;SDS011;4425;50.872;4.712;2022-08-19T18:17:20;4.63;;;3.42;;
8777;SDS011;4425;50.872;4.712;2022-08-19T18:19:50;6.72;;;4.63;;
8777;SDS011;4425;50.872;4.712;2022-08-19T18:22:24;8.40;;;4.97;;
8777;SDS011;4425;50.872;4.712;2022-08-19T18:24:53;11.35;;;5.20;;
8777;SDS011;4425;50.872;4.712;2022-08-19T18:27:26;5.10;;;3.67;;
8777;SDS011;4425;50.872;4.712;2022-08-19T18:29:57;6.05;;;4.03;;
8777;SDS011;4425;50.872;4.712;2022-08-19T18:32:25;4.28;;;3.20;;
8777;SDS011;4425;50.872;4.712;2022-08-19T18:34:54;5.78;;;3.22;;
8777;SDS011;4425;50.872;4.712;2022-08-19T18:37:21;5.00;;;3.42;;
8777;SDS011;4425;50.872;4.712;2022-08-19T18:39:52;6.18;;;3.25;;
8777;SDS011;4425;50.872;4.712;2022-08-19T18:42:40;5.70;;;3.20;;
8777;SDS011;4425;50.872;4.712;2022-08-19T18:45:26;5.47;;;3.40;;
8777;SDS011;4425;50.872;4.712;2022-08-19T18:48:10;3.80;;;2.95;;
8777;SDS011;4425;50.872;4.712;2022-08-19T18:50:58;4.78;;;3.20;;
8777;SDS011;4425;50.872;4.712;2022-08-19T18:53:29;3.70;;;3.25;;
8777;SDS011;4425;50.872;4.712;2022-08-19T18:55:58;7.50;;;3.67;;
8777;SDS011;4425;50.872;4.712;2022-08-19T18:58:27;3.85;;;3.42;;
8777;SDS011;4425;50.872;4.712;2022-08-19T19:00:58;4.20;;;2.80;;
8777;SDS011;4425;50.872;4.712;2022-08-19T19:03:28;3.90;;;3.60;;
8777;SDS011;4425;50.872;4.712;2022-08-19T19:05:58;3.30;;;3.10;;
8777;SDS011;4425;50.872;4.712;2022-08-19T19:08:25;3.33;;;3.03;;
8777;SDS011;4425;50.872;4.712;2022-08-19T19:10:57;3.97;;;3.55;;
8777;SDS011;4425;50.872;4.712;2022-08-19T19:13:29;3.65;;;3.40;;
8777;SDS011;4425;50.872;4.712;2022-08-19T19:15:57;3.92;;;3.47;;
8777;SDS011;4425;50.872;4.712;2022-08-19T19:20:55;4.18;;;3.88;;
8777;SDS011;4425;50.872;4.712;2022-08-19T19:23:23;4.22;;;3.88;;
8777;SDS011;4425;50.872;4.712;2022-08-19T19:25:50;4.85;;;4.10;;
8777;SDS011;4425;50.872;4.712;2022-08-19T19:28:30;4.80;;;4.28;;
8777;SDS011;4425;50.872;4.712;2022-08-19T19:30:59;5.03;;;4.28;;
8777;SDS011;4425;50.872;4.712;2022-08-19T19:33:27;4.53;;;4.22;;
8777;SDS011;4425;50.872;4.712;2022-08-19T19:35:55;4.28;;;3.97;;
8777;SDS011;4425;50.872;4.712;2022-08-19T19:38:26;5.10;;;3.92;;
8777;SDS011;4425;50.872;4.712;2022-08-19T19:40:56;3.88;;;3.53;;
8777;SDS011;4425;50.872;4.712;2022-08-19T19:43:25;4.10;;;3.80;;
8777;SDS011;4425;50.872;4.712;2022-08-19T19:45:54;3.90;;;3.55;;
8777;SDS011;4425;50.872;4.712;2022-08-19T19:48:22;4.40;;;3.50;;
8777;SDS011;4425;50.872;4.712;2022-08-19T23:22:35;4.25;;;3.90;;
8777;SDS011;4425;50.872;4.712;2022-08-19T23:25:20;5.20;;;4.70;;
8777;SDS011;4425;50.872;4.712;2022-08-19T23:28:08;8.68;;;6.10;;
8777;SDS011;4425;50.872;4.712;2022-08-19T23:30:55;10.23;;;7.15;;
8777;SDS011;4425;50.872;4.712;2022-08-19T23:33:39;8.68;;;6.35;;
8777;SDS011;4425;50.872;4.712;2022-08-19T23:36:27;7.32;;;5.53;;
8777;SDS011;4425;50.872;4.712;2022-08-19T23:45:35;6.03;;;4.85;;
8777;SDS011;4425;50.872;4.712;2022-08-19T23:48:20;7.82;;;5.85;;
8777;SDS011;4425;50.872;4.712;2022-08-19T23:51:04;7.85;;;7.05;;
8777;SDS011;4425;50.872;4.712;2022-08-19T23:53:52;7.35;;;6.65;;
8777;SDS011;4425;50.872;4.712;2022-08-19T23:56:35;7.15;;;6.55;;
